sensor_id;sensor_type;location;lat;lon;timestamp;pressure;altitude;pressure_sealevel;temperature;humidity
25420;BME280;13354;48.174;11.566;2022-08-16T00:01:25;95194.69;;;21.16;60.16
25420;BME280;13354;48.174;11.566;2022-08-16T00:03:51;95200.34;;;21.25;59.54
25420;BME280;13354;48.174;11.566;2022-08-16T00:06:16;95199.25;;;21.06;60.08
25420;BME280;13354;48.174;11.566;2022-08-16T00:08:42;95193.63;;;21.07;60.41
25420;BME280;13354;48.174;11.566;2022-08-16T00:11:09;95197.41;;;20.96;60.65
25420;BME280;13354;48.174;11.566;2022-08-16T00:13:34;95199.00;;;21.12;60.18
25420;BME280;13354;48.174;11.566;2022-08-16T00:16:00;95203.31;;;20.98;60.82
25420;BME280;13354;48.174;11.566;2022-08-16T00:18:25;95207.06;;;21.02;60.51
25420;BME280;13354;48.174;11.566;2022-08-16T00:20:50;95201.41;;;20.78;61.81
25420;BME280;13354;48.174;11.566;2022-08-16T00:23:15;95195.50;;;20.66;62.01
25420;BME280;13354;48.174;11.566;2022-08-16T00:25:41;95195.78;;;20.69;62.00
25420;BME280;13354;48.174;11.566;2022-08-16T00:28:06;95200.88;;;20.81;62.02
25420;BME280;13354;48.174;11.566;2022-08-16T00:30:32;95198.19;;;20.66;62.24
25420;BME280;13354;48.174;11.566;2022-08-16T00:32:57;95190.91;;;20.61;62.66
25420;BME280;13354;48.174;11.566;2022-08-16T00:35:27;95196.56;;;20.65;62.31
25420;BME280;13354;48.174;11.566;2022-08-16T00:37:53;95190.63;;;20.68;62.46
25420;BME280;13354;48.174;11.566;2022-08-16T00:40:24;95190.09;;;20.76;62.16
25420;BME280;13354;48.174;11.566;2022-08-16T00:42:49;95191.19;;;20.60;62.68
25420;BME280;13354;48.174;11.566;2022-08-16T00:45:27;95201.31;;;20.42;63.34
25420;BME280;13354;48.174;11.566;2022-08-16T00:47:56;95198.66;;;20.47;63.40
25420;BME280;13354;48.174;11.566;2022-08-16T00:50:24;95196.03;;;20.63;62.93
25420;BME280;13354;48.174;11.566;2022-08-16T00:52:49;95189.25;;;20.50;63.30
25420;BME280;13354;48.174;11.566;2022-08-16T00:55:15;95189.28;;;20.65;62.84
25420;BME280;13354;48.174;11.566;2022-08-16T00:57:40;95191.47;;;20.79;62.38
25420;BME280;13354;48.174;11.566;2022-08-16T01:00:06;95192.00;;;20.75;62.27
25420;BME280;13354;48.174;11.566;2022-08-16T01:02:32;95185.00;;;20.69;62.93
25420;BME280;13354;48.174;11.566;2022-08-16T01:04:58;95192.00;;;20.70;62.43
25420;BME280;13354;48.174;11.566;2022-08-16T01:07:23;95187.72;;;20.85;62.37
25420;BME280;13354;48.174;11.566;2022-08-16T01:09:49;95186.63;;;20.70;62.48
25420;BME280;13354;48.174;11.566;2022-08-16T01:12:15;95190.69;;;20.88;62.10
25420;BME280;13354;48.174;11.566;2022-08-16T01:14:45;95193.34;;;20.83;62.17
25420;BME280;13354;48.174;11.566;2022-08-16T01:17:12;95184.75;;;21.07;61.58
25420;BME280;13354;48.174;11.566;2022-08-16T01:22:18;95193.34;;;21.09;60.93
25420;BME280;13354;48.174;11.566;2022-08-16T01:24:50;95179.63;;;21.00;61.21
25420;BME280;13354;48.174;11.566;2022-08-16T01:27:24;95182.88;;;20.97;61.40
25420;BME280;13354;48.174;11.566;2022-08-16T01:32:16;95185.03;;;20.85;61.80
25420;BME280;13354;48.174;11.566;2022-08-16T01:34:41;95187.97;;;20.83;61.60
25420;BME280;13354;48.174;11.566;2022-08-16T01:37:08;95186.63;;;20.81;61.40
25420;BME280;13354;48.174;11.566;2022-08-16T01:39:34;95184.22;;;20.89;61.23
25420;BME280;13354;48.174;11.566;2022-08-16T01:42:00;95188.25;;;20.82;61.52
25420;BME280;13354;48.174;11.566;2022-08-16T01:44:26;95184.72;;;20.76;61.27
25420;BME280;13354;48.174;11.566;2022-08-16T01:46:51;95186.09;;;20.73;61.54
25420;BME280;13354;48.174;11.566;2022-08-16T01:51:47;95179.38;;;20.81;61.29
25420;BME280;13354;48.174;11.566;2022-08-16T01:54:14;95187.16;;;20.93;60.62
25420;BME280;13354;48.174;11.566;2022-08-16T01:56:39;95189.31;;;20.86;60.24
25420;BME280;13354;48.174;11.566;2022-08-16T01:59:05;95178.81;;;20.89;59.97
25420;BME280;13354;48.174;11.566;2022-08-16T02:01:31;95180.44;;;20.85;59.69
25420;BME280;13354;48.174;11.566;2022-08-16T02:03:57;95173.97;;;20.86;59.88
25420;BME280;13354;48.174;11.566;2022-08-16T02:06:22;95173.72;;;20.93;59.50
25420;BME280;13354;48.174;11.566;2022-08-16T02:08:47;95164.84;;;20.82;59.95
25420;BME280;13354;48.174;11.566;2022-08-16T02:11:13;95162.69;;;20.84;59.90
25420;BME280;13354;48.174;11.566;2022-08-16T02:13:39;95160.00;;;20.89;59.54
25420;BME280;13354;48.174;11.566;2022-08-16T02:16:07;95160.53;;;20.96;58.92
25420;BME280;13354;48.174;11.566;2022-08-16T02:18:32;95157.56;;;20.93;59.28
25420;BME280;13354;48.174;11.566;2022-08-16T02:20:57;95161.88;;;20.94;59.10
25420;BME280;13354;48.174;11.566;2022-08-16T02:23:23;95165.38;;;20.99;58.92
25420;BME280;13354;48.174;11.566;2022-08-16T02:25:49;95162.41;;;20.91;59.08
25420;BME280;13354;48.174;11.566;2022-08-16T02:28:14;95168.59;;;20.96;58.84
25420;BME280;13354;48.174;11.566;2022-08-16T02:30:40;95156.75;;;20.87;59.18
25420;BME280;13354;48.174;11.566;2022-08-16T02:33:05;95162.16;;;20.82;59.27
25420;BME280;13354;48.174;11.566;2022-08-16T02:35:31;95160.78;;;20.90;58.91
25420;BME280;13354;48.174;11.566;2022-08-16T02:37:57;95159.47;;;20.92;58.70
25420;BME280;13354;48.174;11.566;2022-08-16T02:40:22;95162.13;;;20.72;59.46
25420;BME280;13354;48.174;11.566;2022-08-16T02:42:48;95154.09;;;20.77;59.24
25420;BME280;13354;48.174;11.566;2022-08-16T02:45:14;95153.00;;;20.73;59.25
25420;BME280;13354;48.174;11.566;2022-08-16T02:47:39;95150.28;;;20.68;59.49
25420;BME280;13354;48.174;11.566;2022-08-16T02:50:05;95159.16;;;20.58;59.95
25420;BME280;13354;48.174;11.566;2022-08-16T02:52:30;95158.34;;;20.53;60.12
25420;BME280;13354;48.174;11.566;2022-08-16T02:54:55;95155.94;;;20.61;59.59
25420;BME280;13354;48.174;11.566;2022-08-16T02:57:20;95148.13;;;20.49;60.14
25420;BME280;13354;48.174;11.566;2022-08-16T02:59:47;95157.25;;;20.48;60.17
25420;BME280;13354;48.174;11.566;2022-08-16T03:02:12;95163.97;;;20.41;60.73
25420;BME280;13354;48.174;11.566;2022-08-16T03:04:37;95161.56;;;20.49;60.13
25420;BME280;13354;48.174;11.566;2022-08-16T03:07:03;95150.50;;;20.41;60.48
25420;BME280;13354;48.174;11.566;2022-08-16T03:09:30;95159.44;;;20.57;60.16
25420;BME280;13354;48.174;11.566;2022-08-16T03:11:55;95163.22;;;20.66;59.85
25420;BME280;13354;48.174;11.566;2022-08-16T03:14:21;95164.50;;;20.48;60.44
25420;BME280;13354;48.174;11.566;2022-08-16T03:16:46;95168.06;;;20.74;59.02
25420;BME280;13354;48.174;11.566;2022-08-16T03:19:11;95168.31;;;20.72;59.07
25420;BME280;13354;48.174;11.566;2022-08-16T03:21:36;95173.69;;;20.67;59.38
25420;BME280;13354;48.174;11.566;2022-08-16T03:24:01;95174.50;;;20.63;59.75
25420;BME280;13354;48.174;11.566;2022-08-16T03:26:27;95172.81;;;20.46;60.48
25420;BME280;13354;48.174;11.566;2022-08-16T03:28:52;95180.16;;;20.51;60.92
25420;BME280;13354;48.174;11.566;2022-08-16T03:31:17;95180.16;;;20.51;60.93
25420;BME280;13354;48.174;11.566;2022-08-16T03:33:42;95175.00;;;20.44;61.48
25420;BME280;13354;48.174;11.566;2022-08-16T03:36:08;95176.84;;;20.34;62.02
25420;BME280;13354;48.174;11.566;2022-08-16T03:38:33;95183.03;;;20.39;61.94
25420;BME280;13354;48.174;11.566;2022-08-16T03:40:59;95178.72;;;20.33;62.37
25420;BME280;13354;48.174;11.566;2022-08-16T03:43:26;95187.03;;;20.26;62.31
25420;BME280;13354;48.174;11.566;2022-08-16T03:45:52;95176.00;;;20.28;62.32
25420;BME280;13354;48.174;11.566;2022-08-16T03:48:19;95190.00;;;20.30;62.32
25420;BME280;13354;48.174;11.566;2022-08-16T03:50:45;95187.84;;;20.27;62.22
25420;BME280;13354;48.174;11.566;2022-08-16T03:53:10;95188.13;;;20.31;62.20
25420;BME280;13354;48.174;11.566;2022-08-16T03:55:36;95187.28;;;20.20;62.67
25420;BME280;13354;48.174;11.566;2022-08-16T03:58:01;95190.97;;;19.98;63.51
25420;BME280;13354;48.174;11.566;2022-08-16T04:00:28;95188.28;;;19.98;63.72
25420;BME280;13354;48.174;11.566;2022-08-16T04:02:55;95190.72;;;20.00;63.55
25420;BME280;13354;48.174;11.566;2022-08-16T04:05:21;95189.91;;;19.99;63.43
25420;BME280;13354;48.174;11.566;2022-08-16T04:07:46;95188.78;;;19.90;63.56
25420;BME280;13354;48.174;11.566;2022-08-16T04:10:12;95186.06;;;19.80;64.16
25420;BME280;13354;48.174;11.566;2022-08-16T04:12:38;95193.56;;;19.78;63.90
25420;BME280;13354;48.174;11.566;2022-08-16T04:15:05;95188.44;;;19.71;63.99
25420;BME280;13354;48.174;11.566;2022-08-16T04:17:30;95183.78;;;19.62;64.33
25420;BME280;13354;48.174;11.566;2022-08-16T04:19:56;95184.78;;;19.50;64.87
25420;BME280;13354;48.174;11.566;2022-08-16T04:22:22;95184.00;;;19.50;65.23
25420;BME280;13354;48.174;11.566;2022-08-16T04:24:47;95183.34;;;19.75;64.33
25420;BME280;13354;48.174;11.566;2022-08-16T04:27:13;95182.97;;;19.61;64.53
25420;BME280;13354;48.174;11.566;2022-08-16T04:29:38;95189.34;;;19.45;65.48
25420;BME280;13354;48.174;11.566;2022-08-16T04:32:03;95188.00;;;19.47;65.59
25420;BME280;13354;48.174;11.566;2022-08-16T04:34:30;95189.06;;;19.41;65.96
25420;BME280;13354;48.174;11.566;2022-08-16T04:36:56;95189.06;;;19.46;66.17
25420;BME280;13354;48.174;11.566;2022-08-16T04:39:24;95192.78;;;19.40;66.66
25420;BME280;13354;48.174;11.566;2022-08-16T04:41:50;95191.66;;;19.31;67.21
25420;BME280;13354;48.174;11.566;2022-08-16T04:44:15;95200.53;;;19.37;67.13
25420;BME280;13354;48.174;11.566;2022-08-16T04:46:42;95200.38;;;19.53;66.93
25420;BME280;13354;48.174;11.566;2022-08-16T04:49:07;95200.53;;;19.37;67.54
25420;BME280;13354;48.174;11.566;2022-08-16T04:51:33;95202.72;;;19.40;67.82
25420;BME280;13354;48.174;11.566;2022-08-16T04:53:59;95212.41;;;19.41;67.79
25420;BME280;13354;48.174;11.566;2022-08-16T04:56:24;95211.25;;;19.31;68.52
25420;BME280;13354;48.174;11.566;2022-08-16T04:58:50;95205.75;;;19.48;67.97
25420;BME280;13354;48.174;11.566;2022-08-16T05:01:15;95213.00;;;19.53;67.58
25420;BME280;13354;48.174;11.566;2022-08-16T05:03:41;95213.69;;;19.33;68.48
25420;BME280;13354;48.174;11.566;2022-08-16T05:06:07;95205.75;;;19.48;67.66
25420;BME280;13354;48.174;11.566;2022-08-16T05:08:32;95212.75;;;19.17;69.14
25420;BME280;13354;48.174;11.566;2022-08-16T05:10:59;95219.31;;;19.31;68.88
25420;BME280;13354;48.174;11.566;2022-08-16T05:13:24;95207.66;;;19.16;69.54
25420;BME280;13354;48.174;11.566;2022-08-16T05:15:49;95218.69;;;19.19;69.64
25420;BME280;13354;48.174;11.566;2022-08-16T05:18:15;95215.78;;;19.26;69.37
25420;BME280;13354;48.174;11.566;2022-08-16T05:20:40;95213.56;;;19.18;69.63
25420;BME280;13354;48.174;11.566;2022-08-16T05:23:05;95214.16;;;19.25;69.37
25420;BME280;13354;48.174;11.566;2022-08-16T05:25:30;95209.75;;;19.46;68.72
25420;BME280;13354;48.174;11.566;2022-08-16T05:27:55;95213.13;;;19.31;69.22
25420;BME280;13354;48.174;11.566;2022-08-16T05:30:22;95213.13;;;19.31;69.09
25420;BME280;13354;48.174;11.566;2022-08-16T05:32:47;95216.66;;;19.37;68.94
25420;BME280;13354;48.174;11.566;2022-08-16T05:35:12;95215.63;;;19.43;68.85
25420;BME280;13354;48.174;11.566;2022-08-16T05:37:38;95218.53;;;19.36;69.15
25420;BME280;13354;48.174;11.566;2022-08-16T05:40:04;95225.84;;;19.46;68.37
25420;BME280;13354;48.174;11.566;2022-08-16T05:42:30;95219.34;;;19.37;68.93
25420;BME280;13354;48.174;11.566;2022-08-16T05:44:56;95229.56;;;19.40;68.96
25420;BME280;13354;48.174;11.566;2022-08-16T05:47:21;95229.31;;;19.41;68.93
25420;BME280;13354;48.174;11.566;2022-08-16T05:49:46;95228.34;;;19.58;68.51
25420;BME280;13354;48.174;11.566;2022-08-16T05:52:11;95222.44;;;19.61;67.98
25420;BME280;13354;48.174;11.566;2022-08-16T05:54:37;95223.13;;;19.83;67.06
25420;BME280;13354;48.174;11.566;2022-08-16T05:57:02;95216.78;;;19.99;66.05
25420;BME280;13354;48.174;11.566;2022-08-16T05:59:28;95217.03;;;19.98;65.51
25420;BME280;13354;48.174;11.566;2022-08-16T06:01:53;95230.69;;;19.91;65.85
25420;BME280;13354;48.174;11.566;2022-08-16T06:04:19;95226.50;;;20.11;64.59
25420;BME280;13354;48.174;11.566;2022-08-16T06:06:45;95226.97;;;20.02;65.17
25420;BME280;13354;48.174;11.566;2022-08-16T06:09:10;95224.88;;;20.10;64.40
25420;BME280;13354;48.174;11.566;2022-08-16T06:11:36;95223.03;;;20.15;64.19
25420;BME280;13354;48.174;11.566;2022-08-16T06:14:02;95233.81;;;20.25;64.75
25420;BME280;13354;48.174;11.566;2022-08-16T06:16:27;95226.81;;;20.24;64.50
25420;BME280;13354;48.174;11.566;2022-08-16T06:18:52;95231.13;;;20.31;64.03
25420;BME280;13354;48.174;11.566;2022-08-16T06:21:18;95223.38;;;20.44;63.54
25420;BME280;13354;48.174;11.566;2022-08-16T06:23:43;95222.88;;;20.58;62.26
25420;BME280;13354;48.174;11.566;2022-08-16T06:26:08;95219.41;;;20.72;61.92
25420;BME280;13354;48.174;11.566;2022-08-16T06:28:33;95215.41;;;20.80;62.05
25420;BME280;13354;48.174;11.566;2022-08-16T06:30:58;95220.00;;;21.00;62.06
25420;BME280;13354;48.174;11.566;2022-08-16T06:33:24;95222.41;;;21.63;60.21
25420;BME280;13354;48.174;11.566;2022-08-16T06:35:50;95218.72;;;22.29;57.84
25420;BME280;13354;48.174;11.566;2022-08-16T06:38:15;95221.63;;;22.87;54.59
25420;BME280;13354;48.174;11.566;2022-08-16T06:40:40;95228.16;;;23.78;52.99
25420;BME280;13354;48.174;11.566;2022-08-16T06:43:07;95227.75;;;24.62;50.54
25420;BME280;13354;48.174;11.566;2022-08-16T06:45:33;95224.38;;;25.73;47.52
25420;BME280;13354;48.174;11.566;2022-08-16T06:48:02;95223.56;;;26.33;46.31
25420;BME280;13354;48.174;11.566;2022-08-16T06:50:27;95222.22;;;27.31;44.19
25420;BME280;13354;48.174;11.566;2022-08-16T06:52:52;95233.81;;;27.90;42.78
25420;BME280;13354;48.174;11.566;2022-08-16T06:55:17;95231.38;;;28.94;40.76
25420;BME280;13354;48.174;11.566;2022-08-16T06:57:43;95229.28;;;28.82;40.69
25420;BME280;13354;48.174;11.566;2022-08-16T07:00:10;95238.19;;;29.14;39.81
25420;BME280;13354;48.174;11.566;2022-08-16T07:02:39;95230.97;;;30.08;38.44
25420;BME280;13354;48.174;11.566;2022-08-16T07:05:05;95228.50;;;30.16;37.62
25420;BME280;13354;48.174;11.566;2022-08-16T07:07:31;95229.94;;;30.60;36.69
25420;BME280;13354;48.174;11.566;2022-08-16T07:09:56;95226.81;;;30.70;36.38
25420;BME280;13354;48.174;11.566;2022-08-16T07:12:21;95232.19;;;30.58;35.94
25420;BME280;13354;48.174;11.566;2022-08-16T07:14:46;95222.16;;;31.00;35.03
25420;BME280;13354;48.174;11.566;2022-08-16T07:17:13;95221.09;;;31.80;33.17
25420;BME280;13354;48.174;11.566;2022-08-16T07:19:39;95219.44;;;31.88;33.24
25420;BME280;13354;48.174;11.566;2022-08-16T07:22:05;95217.22;;;31.81;33.31
25420;BME280;13354;48.174;11.566;2022-08-16T07:24:30;95220.44;;;32.53;32.38
25420;BME280;13354;48.174;11.566;2022-08-16T07:26:56;95216.31;;;32.22;32.99
25420;BME280;13354;48.174;11.566;2022-08-16T07:29:21;95223.91;;;32.90;31.95
25420;BME280;13354;48.174;11.566;2022-08-16T07:31:46;95221.78;;;32.96;31.74
25420;BME280;13354;48.174;11.566;2022-08-16T07:34:11;95217.41;;;33.07;31.32
25420;BME280;13354;48.174;11.566;2022-08-16T07:36:37;95220.81;;;33.45;31.05
25420;BME280;13354;48.174;11.566;2022-08-16T07:39:02;95213.97;;;33.10;30.46
25420;BME280;13354;48.174;11.566;2022-08-16T07:41:28;95217.22;;;32.76;30.18
25420;BME280;13354;48.174;11.566;2022-08-16T07:43:53;95213.88;;;33.07;30.39
25420;BME280;13354;48.174;11.566;2022-08-16T07:46:18;95203.22;;;33.74;29.13
25420;BME280;13354;48.174;11.566;2022-08-16T07:48:43;95205.91;;;34.02;29.03
25420;BME280;13354;48.174;11.566;2022-08-16T07:51:09;95211.91;;;33.35;29.66
25420;BME280;13354;48.174;11.566;2022-08-16T07:53:34;95215.06;;;33.62;28.94
25420;BME280;13354;48.174;11.566;2022-08-16T07:55:59;95217.22;;;32.76;30.22
25420;BME280;13354;48.174;11.566;2022-08-16T07:58:25;95212.66;;;32.31;30.38
25420;BME280;13354;48.174;11.566;2022-08-16T08:00:50;95215.94;;;31.33;31.70
25420;BME280;13354;48.174;11.566;2022-08-16T08:03:16;95220.66;;;31.03;31.91
25420;BME280;13354;48.174;11.566;2022-08-16T08:05:41;95215.72;;;30.96;32.13
25420;BME280;13354;48.174;11.566;2022-08-16T08:08:06;95225.56;;;30.68;32.58
25420;BME280;13354;48.174;11.566;2022-08-16T08:10:32;95236.22;;;30.52;33.10
25420;BME280;13354;48.174;11.566;2022-08-16T08:12:57;95233.19;;;30.53;33.14
25420;BME280;13354;48.174;11.566;2022-08-16T08:15:22;95224.66;;;30.55;33.62
25420;BME280;13354;48.174;11.566;2022-08-16T08:17:48;95217.22;;;30.35;33.43
25420;BME280;13354;48.174;11.566;2022-08-16T08:20:15;95226.72;;;30.28;33.78
25420;BME280;13354;48.174;11.566;2022-08-16T08:22:41;95217.53;;;30.33;33.84
25420;BME280;13354;48.174;11.566;2022-08-16T08:25:10;95216.63;;;30.12;33.67
25420;BME280;13354;48.174;11.566;2022-08-16T08:27:36;95218.72;;;29.76;34.80
25420;BME280;13354;48.174;11.566;2022-08-16T08:30:01;95224.22;;;29.33;35.93
25420;BME280;13354;48.174;11.566;2022-08-16T08:32:26;95227.25;;;29.40;34.95
25420;BME280;13354;48.174;11.566;2022-08-16T08:34:52;95228.72;;;29.29;34.38
25420;BME280;13354;48.174;11.566;2022-08-16T08:37:17;95232.88;;;29.61;34.05
25420;BME280;13354;48.174;11.566;2022-08-16T08:39:42;95228.38;;;29.39;34.86
25420;BME280;13354;48.174;11.566;2022-08-16T08:42:08;95226.47;;;29.22;35.64
25420;BME280;13354;48.174;11.566;2022-08-16T08:44:33;95217.59;;;29.60;34.59
25420;BME280;13354;48.174;11.566;2022-08-16T08:46:59;95222.34;;;29.98;34.07
25420;BME280;13354;48.174;11.566;2022-08-16T08:49:25;95224.00;;;29.64;34.43
25420;BME280;13354;48.174;11.566;2022-08-16T08:51:50;95220.94;;;29.74;34.36
25420;BME280;13354;48.174;11.566;2022-08-16T08:54:15;95224.19;;;29.42;34.15
25420;BME280;13354;48.174;11.566;2022-08-16T08:56:40;95230.47;;;29.33;35.14
25420;BME280;13354;48.174;11.566;2022-08-16T08:59:06;95227.19;;;29.75;34.40
25420;BME280;13354;48.174;11.566;2022-08-16T09:01:33;95228.88;;;29.24;34.11
25420;BME280;13354;48.174;11.566;2022-08-16T09:03:58;95226.13;;;29.15;34.24
25420;BME280;13354;48.174;11.566;2022-08-16T09:06:24;95232.22;;;29.12;35.33
25420;BME280;13354;48.174;11.566;2022-08-16T09:08:49;95228.84;;;29.50;34.32
25420;BME280;13354;48.174;11.566;2022-08-16T09:11:14;95222.38;;;29.80;33.85
25420;BME280;13354;48.174;11.566;2022-08-16T09:13:39;95226.16;;;30.05;33.74
25420;BME280;13354;48.174;11.566;2022-08-16T09:16:05;95225.41;;;29.88;34.27
25420;BME280;13354;48.174;11.566;2022-08-16T09:18:31;95212.38;;;30.02;34.21
25420;BME280;13354;48.174;11.566;2022-08-16T09:20:56;95215.56;;;30.04;34.15
25420;BME280;13354;48.174;11.566;2022-08-16T09:23:23;95212.81;;;30.13;34.21
25420;BME280;13354;48.174;11.566;2022-08-16T09:25:49;95215.09;;;30.40;33.75
25420;BME280;13354;48.174;11.566;2022-08-16T09:28:15;95213.56;;;30.30;34.08
25420;BME280;13354;48.174;11.566;2022-08-16T09:30:40;95222.00;;;30.38;34.65
25420;BME280;13354;48.174;11.566;2022-08-16T09:33:06;95217.47;;;30.03;34.17
25420;BME280;13354;48.174;11.566;2022-08-16T09:35:32;95225.56;;;30.38;33.24
25420;BME280;13354;48.174;11.566;2022-08-16T09:37:57;95213.78;;;30.17;34.14
25420;BME280;13354;48.174;11.566;2022-08-16T09:40:23;95209.06;;;30.26;33.57
25420;BME280;13354;48.174;11.566;2022-08-16T09:42:48;95210.84;;;30.22;33.58
25420;BME280;13354;48.174;11.566;2022-08-16T09:45:14;95209.78;;;30.44;33.83
25420;BME280;13354;48.174;11.566;2022-08-16T09:47:39;95212.75;;;29.83;34.15
25420;BME280;13354;48.174;11.566;2022-08-16T09:50:11;95208.34;;;29.99;33.20
25420;BME280;13354;48.174;11.566;2022-08-16T09:52:36;95213.06;;;30.28;33.95
25420;BME280;13354;48.174;11.566;2022-08-16T09:55:11;95211.06;;;30.17;32.31
25420;BME280;13354;48.174;11.566;2022-08-16T09:57:36;95208.13;;;29.66;33.78
25420;BME280;13354;48.174;11.566;2022-08-16T10:00:05;95204.00;;;30.07;32.72
25420;BME280;13354;48.174;11.566;2022-08-16T10:02:32;95203.63;;;29.70;33.01
25420;BME280;13354;48.174;11.566;2022-08-16T10:04:57;95207.66;;;29.38;34.04
25420;BME280;13354;48.174;11.566;2022-08-16T10:07:23;95198.81;;;29.76;33.26
25420;BME280;13354;48.174;11.566;2022-08-16T10:09:49;95198.97;;;29.71;33.75
25420;BME280;13354;48.174;11.566;2022-08-16T10:12:15;95196.44;;;29.57;33.75
25420;BME280;13354;48.174;11.566;2022-08-16T10:14:59;95201.91;;;30.04;33.57
25420;BME280;13354;48.174;11.566;2022-08-16T10:17:24;95193.06;;;30.07;34.15
25420;BME280;13354;48.174;11.566;2022-08-16T10:19:50;95190.44;;;30.28;32.94
25420;BME280;13354;48.174;11.566;2022-08-16T10:22:16;95191.75;;;30.13;33.03
25420;BME280;13354;48.174;11.566;2022-08-16T10:24:42;95188.19;;;29.83;33.20
25420;BME280;13354;48.174;11.566;2022-08-16T10:27:07;95183.84;;;29.91;32.74
25420;BME280;13354;48.174;11.566;2022-08-16T10:29:32;95193.91;;;29.99;32.55
25420;BME280;13354;48.174;11.566;2022-08-16T10:31:58;95193.22;;;30.11;32.33
25420;BME280;13354;48.174;11.566;2022-08-16T10:34:24;95193.31;;;30.31;31.81
25420;BME280;13354;48.174;11.566;2022-08-16T10:36:49;95198.53;;;30.45;31.39
25420;BME280;13354;48.174;11.566;2022-08-16T10:39:15;95195.63;;;30.71;31.83
25420;BME280;13354;48.174;11.566;2022-08-16T10:41:43;95192.38;;;30.78;31.31
25420;BME280;13354;48.174;11.566;2022-08-16T10:44:11;95184.28;;;30.90;30.22
25420;BME280;13354;48.174;11.566;2022-08-16T10:46:38;95188.72;;;30.95;31.33
25420;BME280;13354;48.174;11.566;2022-08-16T10:49:03;95189.25;;;31.30;30.52
25420;BME280;13354;48.174;11.566;2022-08-16T10:51:28;95180.56;;;31.49;30.46
25420;BME280;13354;48.174;11.566;2022-08-16T10:53:55;95179.94;;;31.76;29.28
25420;BME280;13354;48.174;11.566;2022-08-16T10:56:22;95182.66;;;31.64;29.88
25420;BME280;13354;48.174;11.566;2022-08-16T10:58:49;95179.28;;;31.92;29.70
25420;BME280;13354;48.174;11.566;2022-08-16T11:01:15;95188.56;;;32.12;29.89
25420;BME280;13354;48.174;11.566;2022-08-16T11:03:40;95184.56;;;32.34;28.41
25420;BME280;13354;48.174;11.566;2022-08-16T11:06:06;95186.94;;;31.86;28.62
25420;BME280;13354;48.174;11.566;2022-08-16T11:08:32;95192.09;;;32.12;28.33
25420;BME280;13354;48.174;11.566;2022-08-16T11:10:57;95190.63;;;32.27;28.23
25420;BME280;13354;48.174;11.566;2022-08-16T11:13:24;95195.84;;;32.69;28.16
25420;BME280;13354;48.174;11.566;2022-08-16T11:15:49;95196.28;;;32.83;27.95
25420;BME280;13354;48.174;11.566;2022-08-16T11:18:15;95194.13;;;32.77;28.69
25420;BME280;13354;48.174;11.566;2022-08-16T11:20:40;95203.63;;;32.55;28.21
25420;BME280;13354;48.174;11.566;2022-08-16T11:23:07;95202.50;;;32.68;27.69
25420;BME280;13354;48.174;11.566;2022-08-16T11:25:32;95196.09;;;32.27;27.33
25420;BME280;13354;48.174;11.566;2022-08-16T11:27:58;95194.97;;;31.70;28.16
25420;BME280;13354;48.174;11.566;2022-08-16T11:30:24;95206.59;;;30.92;29.61
25420;BME280;13354;48.174;11.566;2022-08-16T11:32:50;95195.25;;;30.52;29.58
25420;BME280;13354;48.174;11.566;2022-08-16T11:35:16;95202.78;;;29.78;30.76
25420;BME280;13354;48.174;11.566;2022-08-16T11:37:49;95192.03;;;29.91;30.14
25420;BME280;13354;48.174;11.566;2022-08-16T11:40:15;95193.66;;;30.51;29.89
25420;BME280;13354;48.174;11.566;2022-08-16T11:42:40;95180.25;;;30.88;29.17
25420;BME280;13354;48.174;11.566;2022-08-16T11:45:06;95176.69;;;30.75;30.32
25420;BME280;13354;48.174;11.566;2022-08-16T11:47:31;95181.19;;;30.41;29.74
25420;BME280;13354;48.174;11.566;2022-08-16T11:49:56;95174.66;;;30.33;29.64
25420;BME280;13354;48.174;11.566;2022-08-16T11:52:21;95179.34;;;30.54;29.61
25420;BME280;13354;48.174;11.566;2022-08-16T11:54:48;95171.22;;;30.75;29.52
25420;BME280;13354;48.174;11.566;2022-08-16T11:57:13;95177.63;;;30.70;29.94
25420;BME280;13354;48.174;11.566;2022-08-16T11:59:38;95173.47;;;30.43;30.36
25420;BME280;13354;48.174;11.566;2022-08-16T12:02:04;95178.63;;;30.06;31.47
25420;BME280;13354;48.174;11.566;2022-08-16T12:04:30;95175.66;;;29.91;31.34
25420;BME280;13354;48.174;11.566;2022-08-16T12:06:56;95169.09;;;29.83;31.34
25420;BME280;13354;48.174;11.566;2022-08-16T12:09:21;95167.47;;;29.91;31.72
25420;BME280;13354;48.174;11.566;2022-08-16T12:11:48;95163.97;;;30.11;31.48
25420;BME280;13354;48.174;11.566;2022-08-16T12:14:13;95161.44;;;30.65;30.72
25420;BME280;13354;48.174;11.566;2022-08-16T12:16:38;95154.03;;;31.08;30.28
25420;BME280;13354;48.174;11.566;2022-08-16T12:19:05;95155.22;;;31.40;29.06
25420;BME280;13354;48.174;11.566;2022-08-16T12:21:31;95154.00;;;31.49;29.11
25420;BME280;13354;48.174;11.566;2022-08-16T12:23:57;95151.13;;;31.46;29.05
25420;BME280;13354;48.174;11.566;2022-08-16T12:26:22;95155.66;;;31.75;28.51
25420;BME280;13354;48.174;11.566;2022-08-16T12:28:47;95160.13;;;32.29;27.71
25420;BME280;13354;48.174;11.566;2022-08-16T12:31:14;95161.13;;;32.73;26.81
25420;BME280;13354;48.174;11.566;2022-08-16T12:33:39;95161.31;;;32.52;26.38
25420;BME280;13354;48.174;11.566;2022-08-16T12:36:08;95159.16;;;32.98;25.93
25420;BME280;13354;48.174;11.566;2022-08-16T12:38:33;95164.97;;;32.84;25.44
25420;BME280;13354;48.174;11.566;2022-08-16T12:40:59;95156.28;;;33.07;25.55
25420;BME280;13354;48.174;11.566;2022-08-16T12:43:25;95155.31;;;33.15;25.25
25420;BME280;13354;48.174;11.566;2022-08-16T12:45:51;95152.97;;;33.01;25.42
25420;BME280;13354;48.174;11.566;2022-08-16T12:48:19;95158.56;;;33.05;25.89
25420;BME280;13354;48.174;11.566;2022-08-16T12:51:05;95158.75;;;33.12;25.90